Terminal Aerodrome Forecast
Issued by NWS

Home | Current Version | Previous Version | Text Only | Print | Product List | Glossary On
Versions: 1 2 3 4 5 6 7 8 9 10 11 12 13 14 15 16
000
FTUS45 KSLC 210220 AAB
TAFEVW
TAF AMD
KEVW 210220Z 2102/2124 23011KT P6SM VCSH SCT020 BKN035
      TEMPO 2102/2105 BKN025
     FM211900 24011KT P6SM SCT030 BKN060=

USA.gov is the U.S. government's official web portal to all federal, state and local government web resources and services.